sensor_id;sensor_type;location;lat;lon;timestamp;P1;durP1;ratioP1;P2;durP2;ratioP2
59338;SDS011;45117;50.960;5.500;2023-03-02T00:00:30;16.65;;;8.10;;
59338;SDS011;45117;50.960;5.500;2023-03-02T00:02:59;15.85;;;7.95;;
59338;SDS011;45117;50.960;5.500;2023-03-02T00:05:26;16.20;;;7.63;;
59338;SDS011;45117;50.960;5.500;2023-03-02T00:07:53;16.45;;;7.95;;
59338;SDS011;45117;50.960;5.500;2023-03-02T00:10:20;16.75;;;8.15;;
59338;SDS011;45117;50.960;5.500;2023-03-02T00:12:47;14.40;;;7.50;;
59338;SDS011;45117;50.960;5.500;2023-03-02T00:15:13;16.60;;;7.70;;
59338;SDS011;45117;50.960;5.500;2023-03-02T00:17:40;17.17;;;8.18;;
59338;SDS011;45117;50.960;5.500;2023-03-02T00:20:08;17.15;;;8.13;;
59338;SDS011;45117;50.960;5.500;2023-03-02T00:22:36;16.75;;;8.00;;
59338;SDS011;45117;50.960;5.500;2023-03-02T00:25:03;15.48;;;7.07;;
59338;SDS011;45117;50.960;5.500;2023-03-02T00:27:31;16.23;;;7.90;;
59338;SDS011;45117;50.960;5.500;2023-03-02T00:29:57;17.48;;;8.43;;
59338;SDS011;45117;50.960;5.500;2023-03-02T00:32:24;13.55;;;6.68;;
59338;SDS011;45117;50.960;5.500;2023-03-02T00:34:50;18.60;;;8.30;;
59338;SDS011;45117;50.960;5.500;2023-03-02T00:37:18;18.45;;;7.43;;
59338;SDS011;45117;50.960;5.500;2023-03-02T00:39:45;16.40;;;7.93;;
59338;SDS011;45117;50.960;5.500;2023-03-02T00:42:12;22.38;;;8.30;;
59338;SDS011;45117;50.960;5.500;2023-03-02T00:44:39;15.02;;;6.82;;
59338;SDS011;45117;50.960;5.500;2023-03-02T00:47:05;18.98;;;8.30;;
59338;SDS011;45117;50.960;5.500;2023-03-02T00:49:32;19.67;;;8.38;;
59338;SDS011;45117;50.960;5.500;2023-03-02T00:51:58;15.63;;;7.57;;
59338;SDS011;45117;50.960;5.500;2023-03-02T00:54:26;15.98;;;7.28;;
59338;SDS011;45117;50.960;5.500;2023-03-02T00:56:53;17.48;;;7.55;;
59338;SDS011;45117;50.960;5.500;2023-03-02T00:59:19;14.50;;;6.68;;
59338;SDS011;45117;50.960;5.500;2023-03-02T01:01:54;15.52;;;7.28;;
59338;SDS011;45117;50.960;5.500;2023-03-02T01:04:23;16.45;;;7.63;;
59338;SDS011;45117;50.960;5.500;2023-03-02T01:06:53;16.30;;;7.70;;
59338;SDS011;45117;50.960;5.500;2023-03-02T01:09:20;16.52;;;7.40;;
59338;SDS011;45117;50.960;5.500;2023-03-02T01:11:48;17.52;;;8.25;;
59338;SDS011;45117;50.960;5.500;2023-03-02T01:14:14;15.68;;;7.90;;
59338;SDS011;45117;50.960;5.500;2023-03-02T01:16:41;17.20;;;6.82;;
59338;SDS011;45117;50.960;5.500;2023-03-02T01:19:07;15.95;;;7.55;;
59338;SDS011;45117;50.960;5.500;2023-03-02T01:21:34;15.30;;;7.60;;
59338;SDS011;45117;50.960;5.500;2023-03-02T01:24:00;18.88;;;8.02;;
59338;SDS011;45117;50.960;5.500;2023-03-02T01:26:27;15.27;;;7.43;;
59338;SDS011;45117;50.960;5.500;2023-03-02T01:28:55;17.65;;;7.18;;
59338;SDS011;45117;50.960;5.500;2023-03-02T01:31:21;17.10;;;7.78;;
59338;SDS011;45117;50.960;5.500;2023-03-02T01:33:48;15.90;;;7.45;;
59338;SDS011;45117;50.960;5.500;2023-03-02T01:36:15;15.48;;;7.78;;
59338;SDS011;45117;50.960;5.500;2023-03-02T01:38:42;14.35;;;7.00;;
59338;SDS011;45117;50.960;5.500;2023-03-02T01:41:08;16.77;;;7.80;;
59338;SDS011;45117;50.960;5.500;2023-03-02T01:43:35;18.25;;;7.35;;
59338;SDS011;45117;50.960;5.500;2023-03-02T01:46:04;17.25;;;7.55;;
59338;SDS011;45117;50.960;5.500;2023-03-02T01:48:34;13.55;;;7.05;;
59338;SDS011;45117;50.960;5.500;2023-03-02T01:51:05;15.35;;;7.65;;
59338;SDS011;45117;50.960;5.500;2023-03-02T01:53:33;17.02;;;7.40;;
59338;SDS011;45117;50.960;5.500;2023-03-02T01:56:01;16.95;;;7.85;;
59338;SDS011;45117;50.960;5.500;2023-03-02T01:58:30;17.17;;;7.65;;
59338;SDS011;45117;50.960;5.500;2023-03-02T02:01:00;19.23;;;8.30;;
59338;SDS011;45117;50.960;5.500;2023-03-02T02:03:28;17.23;;;8.05;;
59338;SDS011;45117;50.960;5.500;2023-03-02T02:05:58;18.58;;;8.13;;
59338;SDS011;45117;50.960;5.500;2023-03-02T02:08:31;19.20;;;7.60;;
59338;SDS011;45117;50.960;5.500;2023-03-02T02:10:58;20.73;;;8.20;;
59338;SDS011;45117;50.960;5.500;2023-03-02T02:13:26;16.40;;;8.25;;
59338;SDS011;45117;50.960;5.500;2023-03-02T02:15:52;17.25;;;7.97;;
59338;SDS011;45117;50.960;5.500;2023-03-02T02:18:19;13.70;;;7.40;;
59338;SDS011;45117;50.960;5.500;2023-03-02T02:20:46;22.30;;;8.77;;
59338;SDS011;45117;50.960;5.500;2023-03-02T02:23:18;15.57;;;8.07;;
59338;SDS011;45117;50.960;5.500;2023-03-02T02:26:03;19.65;;;8.80;;
59338;SDS011;45117;50.960;5.500;2023-03-02T02:28:36;14.95;;;7.57;;
59338;SDS011;45117;50.960;5.500;2023-03-02T02:31:09;14.07;;;6.97;;
59338;SDS011;45117;50.960;5.500;2023-03-02T02:33:39;17.35;;;8.05;;
59338;SDS011;45117;50.960;5.500;2023-03-02T02:36:11;19.00;;;8.30;;
59338;SDS011;45117;50.960;5.500;2023-03-02T02:38:42;20.08;;;8.38;;
59338;SDS011;45117;50.960;5.500;2023-03-02T02:41:14;16.00;;;7.85;;
59338;SDS011;45117;50.960;5.500;2023-03-02T02:43:45;17.75;;;7.80;;
59338;SDS011;45117;50.960;5.500;2023-03-02T02:46:11;18.40;;;8.60;;
59338;SDS011;45117;50.960;5.500;2023-03-02T02:48:38;16.77;;;7.88;;
59338;SDS011;45117;50.960;5.500;2023-03-02T02:51:05;18.25;;;8.02;;
59338;SDS011;45117;50.960;5.500;2023-03-02T02:53:34;19.23;;;7.90;;
59338;SDS011;45117;50.960;5.500;2023-03-02T02:56:06;16.42;;;8.25;;
59338;SDS011;45117;50.960;5.500;2023-03-02T02:58:38;15.13;;;7.95;;
59338;SDS011;45117;50.960;5.500;2023-03-02T03:01:09;17.63;;;7.75;;
59338;SDS011;45117;50.960;5.500;2023-03-02T03:03:37;18.38;;;8.52;;
59338;SDS011;45117;50.960;5.500;2023-03-02T03:06:08;18.48;;;8.85;;
59338;SDS011;45117;50.960;5.500;2023-03-02T03:08:50;18.52;;;8.20;;
59338;SDS011;45117;50.960;5.500;2023-03-02T03:11:20;19.50;;;8.65;;
59338;SDS011;45117;50.960;5.500;2023-03-02T03:13:50;18.67;;;8.23;;
59338;SDS011;45117;50.960;5.500;2023-03-02T03:16:21;16.95;;;7.97;;
59338;SDS011;45117;50.960;5.500;2023-03-02T03:18:50;15.98;;;7.47;;
59338;SDS011;45117;50.960;5.500;2023-03-02T03:21:18;18.05;;;8.30;;
59338;SDS011;45117;50.960;5.500;2023-03-02T03:23:45;18.92;;;8.90;;
59338;SDS011;45117;50.960;5.500;2023-03-02T03:26:13;15.02;;;8.23;;
59338;SDS011;45117;50.960;5.500;2023-03-02T03:28:39;15.35;;;7.95;;
59338;SDS011;45117;50.960;5.500;2023-03-02T03:31:07;15.55;;;7.75;;
59338;SDS011;45117;50.960;5.500;2023-03-02T03:33:33;16.27;;;8.18;;
59338;SDS011;45117;50.960;5.500;2023-03-02T03:36:00;19.67;;;8.32;;
59338;SDS011;45117;50.960;5.500;2023-03-02T03:38:27;17.05;;;7.93;;
59338;SDS011;45117;50.960;5.500;2023-03-02T03:40:55;17.77;;;7.85;;
59338;SDS011;45117;50.960;5.500;2023-03-02T03:43:21;16.67;;;7.95;;
59338;SDS011;45117;50.960;5.500;2023-03-02T03:45:48;17.65;;;7.65;;
59338;SDS011;45117;50.960;5.500;2023-03-02T03:48:16;16.73;;;7.95;;
59338;SDS011;45117;50.960;5.500;2023-03-02T03:50:43;18.30;;;8.40;;
59338;SDS011;45117;50.960;5.500;2023-03-02T03:53:09;18.17;;;8.70;;
59338;SDS011;45117;50.960;5.500;2023-03-02T03:55:36;15.40;;;8.23;;
59338;SDS011;45117;50.960;5.500;2023-03-02T03:58:02;15.02;;;8.18;;
59338;SDS011;45117;50.960;5.500;2023-03-02T04:00:29;17.30;;;8.02;;
59338;SDS011;45117;50.960;5.500;2023-03-02T04:02:55;15.45;;;8.05;;
59338;SDS011;45117;50.960;5.500;2023-03-02T04:05:23;16.17;;;8.23;;
59338;SDS011;45117;50.960;5.500;2023-03-02T04:07:50;18.30;;;8.10;;
59338;SDS011;45117;50.960;5.500;2023-03-02T04:10:16;17.30;;;8.13;;
59338;SDS011;45117;50.960;5.500;2023-03-02T04:12:43;16.38;;;8.40;;
59338;SDS011;45117;50.960;5.500;2023-03-02T04:15:12;17.60;;;7.85;;
59338;SDS011;45117;50.960;5.500;2023-03-02T04:17:40;15.70;;;7.90;;
59338;SDS011;45117;50.960;5.500;2023-03-02T04:20:08;19.85;;;8.32;;
59338;SDS011;45117;50.960;5.500;2023-03-02T04:22:42;18.75;;;8.70;;
59338;SDS011;45117;50.960;5.500;2023-03-02T04:25:09;17.60;;;8.55;;
59338;SDS011;45117;50.960;5.500;2023-03-02T04:27:36;16.75;;;8.35;;
59338;SDS011;45117;50.960;5.500;2023-03-02T04:30:03;19.95;;;9.05;;
59338;SDS011;45117;50.960;5.500;2023-03-02T04:32:31;17.83;;;9.07;;
59338;SDS011;45117;50.960;5.500;2023-03-02T04:34:57;18.23;;;8.98;;
59338;SDS011;45117;50.960;5.500;2023-03-02T04:37:24;20.55;;;9.07;;
59338;SDS011;45117;50.960;5.500;2023-03-02T04:39:52;18.80;;;8.98;;
59338;SDS011;45117;50.960;5.500;2023-03-02T04:42:19;15.27;;;8.05;;
59338;SDS011;45117;50.960;5.500;2023-03-02T04:44:46;18.30;;;8.35;;
59338;SDS011;45117;50.960;5.500;2023-03-02T04:47:13;18.42;;;8.90;;
59338;SDS011;45117;50.960;5.500;2023-03-02T04:49:40;18.65;;;9.07;;
59338;SDS011;45117;50.960;5.500;2023-03-02T04:52:06;18.33;;;8.93;;
59338;SDS011;45117;50.960;5.500;2023-03-02T04:54:33;16.90;;;8.10;;
59338;SDS011;45117;50.960;5.500;2023-03-02T04:57:01;19.75;;;9.07;;
59338;SDS011;45117;50.960;5.500;2023-03-02T04:59:27;17.70;;;8.65;;
59338;SDS011;45117;50.960;5.500;2023-03-02T05:01:55;16.08;;;8.77;;
59338;SDS011;45117;50.960;5.500;2023-03-02T05:04:24;15.20;;;8.05;;
59338;SDS011;45117;50.960;5.500;2023-03-02T05:06:51;15.73;;;7.63;;
59338;SDS011;45117;50.960;5.500;2023-03-02T05:09:18;19.95;;;8.82;;
59338;SDS011;45117;50.960;5.500;2023-03-02T05:11:45;18.20;;;8.50;;
59338;SDS011;45117;50.960;5.500;2023-03-02T05:14:13;20.25;;;8.80;;
59338;SDS011;45117;50.960;5.500;2023-03-02T05:16:40;15.48;;;8.45;;
59338;SDS011;45117;50.960;5.500;2023-03-02T05:19:08;17.25;;;8.68;;
59338;SDS011;45117;50.960;5.500;2023-03-02T05:21:35;17.42;;;8.82;;
59338;SDS011;45117;50.960;5.500;2023-03-02T05:24:02;16.98;;;8.90;;
59338;SDS011;45117;50.960;5.500;2023-03-02T05:26:29;19.00;;;8.45;;
59338;SDS011;45117;50.960;5.500;2023-03-02T05:28:56;19.95;;;8.75;;
59338;SDS011;45117;50.960;5.500;2023-03-02T05:31:25;17.98;;;8.98;;
59338;SDS011;45117;50.960;5.500;2023-03-02T05:33:54;16.35;;;8.27;;
59338;SDS011;45117;50.960;5.500;2023-03-02T05:36:21;17.35;;;8.68;;
59338;SDS011;45117;50.960;5.500;2023-03-02T05:38:47;16.25;;;8.52;;
59338;SDS011;45117;50.960;5.500;2023-03-02T05:41:13;15.05;;;8.00;;
59338;SDS011;45117;50.960;5.500;2023-03-02T05:43:40;20.40;;;8.20;;
59338;SDS011;45117;50.960;5.500;2023-03-02T05:46:07;18.05;;;8.50;;
59338;SDS011;45117;50.960;5.500;2023-03-02T05:48:35;17.08;;;8.07;;
59338;SDS011;45117;50.960;5.500;2023-03-02T05:51:02;17.42;;;8.85;;
59338;SDS011;45117;50.960;5.500;2023-03-02T05:53:29;20.45;;;8.65;;
59338;SDS011;45117;50.960;5.500;2023-03-02T05:55:55;17.35;;;8.25;;
59338;SDS011;45117;50.960;5.500;2023-03-02T05:58:22;15.27;;;8.15;;
59338;SDS011;45117;50.960;5.500;2023-03-02T06:00:49;18.48;;;8.43;;
59338;SDS011;45117;50.960;5.500;2023-03-02T06:03:15;16.45;;;9.02;;
59338;SDS011;45117;50.960;5.500;2023-03-02T06:05:44;17.02;;;7.80;;
59338;SDS011;45117;50.960;5.500;2023-03-02T06:08:16;14.45;;;7.57;;
59338;SDS011;45117;50.960;5.500;2023-03-02T06:10:43;18.08;;;8.57;;
59338;SDS011;45117;50.960;5.500;2023-03-02T06:13:09;20.17;;;9.60;;
59338;SDS011;45117;50.960;5.500;2023-03-02T06:15:36;19.30;;;8.68;;
59338;SDS011;45117;50.960;5.500;2023-03-02T06:18:04;18.25;;;8.45;;
59338;SDS011;45117;50.960;5.500;2023-03-02T06:20:31;15.65;;;8.10;;
59338;SDS011;45117;50.960;5.500;2023-03-02T06:22:59;20.77;;;8.82;;
59338;SDS011;45117;50.960;5.500;2023-03-02T06:25:26;17.15;;;8.77;;
59338;SDS011;45117;50.960;5.500;2023-03-02T06:27:52;17.50;;;8.68;;
59338;SDS011;45117;50.960;5.500;2023-03-02T06:30:19;19.50;;;8.75;;
59338;SDS011;45117;50.960;5.500;2023-03-02T06:32:47;18.60;;;8.25;;
59338;SDS011;45117;50.960;5.500;2023-03-02T06:35:14;20.60;;;9.10;;
59338;SDS011;45117;50.960;5.500;2023-03-02T06:37:40;16.70;;;8.00;;
59338;SDS011;45117;50.960;5.500;2023-03-02T06:40:10;17.88;;;8.48;;
59338;SDS011;45117;50.960;5.500;2023-03-02T06:42:37;15.85;;;8.23;;
59338;SDS011;45117;50.960;5.500;2023-03-02T06:45:06;19.65;;;8.70;;
59338;SDS011;45117;50.960;5.500;2023-03-02T06:47:34;16.23;;;7.97;;
59338;SDS011;45117;50.960;5.500;2023-03-02T06:50:00;17.25;;;7.85;;
59338;SDS011;45117;50.960;5.500;2023-03-02T06:52:27;18.15;;;8.57;;
59338;SDS011;45117;50.960;5.500;2023-03-02T06:54:54;19.83;;;8.32;;
59338;SDS011;45117;50.960;5.500;2023-03-02T06:57:22;16.85;;;8.05;;
59338;SDS011;45117;50.960;5.500;2023-03-02T06:59:49;16.45;;;8.63;;
59338;SDS011;45117;50.960;5.500;2023-03-02T07:02:15;17.17;;;8.48;;
59338;SDS011;45117;50.960;5.500;2023-03-02T07:04:42;16.02;;;7.75;;
59338;SDS011;45117;50.960;5.500;2023-03-02T07:07:08;18.58;;;8.13;;
59338;SDS011;45117;50.960;5.500;2023-03-02T07:09:34;16.63;;;7.47;;
59338;SDS011;45117;50.960;5.500;2023-03-02T07:12:01;18.17;;;8.32;;
59338;SDS011;45117;50.960;5.500;2023-03-02T07:14:29;17.92;;;8.35;;
59338;SDS011;45117;50.960;5.500;2023-03-02T07:16:55;16.60;;;7.80;;
59338;SDS011;45117;50.960;5.500;2023-03-02T07:19:24;19.02;;;7.70;;
59338;SDS011;45117;50.960;5.500;2023-03-02T07:21:50;18.20;;;7.93;;
59338;SDS011;45117;50.960;5.500;2023-03-02T07:24:17;18.45;;;6.95;;
59338;SDS011;45117;50.960;5.500;2023-03-02T07:26:43;16.50;;;6.75;;
59338;SDS011;45117;50.960;5.500;2023-03-02T07:29:10;15.80;;;6.88;;
59338;SDS011;45117;50.960;5.500;2023-03-02T07:31:38;16.20;;;7.93;;
59338;SDS011;45117;50.960;5.500;2023-03-02T07:34:04;14.50;;;7.85;;
59338;SDS011;45117;50.960;5.500;2023-03-02T07:36:31;16.13;;;7.22;;
59338;SDS011;45117;50.960;5.500;2023-03-02T07:38:57;16.13;;;7.30;;
59338;SDS011;45117;50.960;5.500;2023-03-02T07:41:24;12.98;;;7.20;;
59338;SDS011;45117;50.960;5.500;2023-03-02T07:43:50;12.57;;;6.40;;
59338;SDS011;45117;50.960;5.500;2023-03-02T07:46:17;12.82;;;6.60;;
59338;SDS011;45117;50.960;5.500;2023-03-02T07:48:45;14.27;;;7.35;;
59338;SDS011;45117;50.960;5.500;2023-03-02T07:51:11;13.25;;;6.45;;
59338;SDS011;45117;50.960;5.500;2023-03-02T07:53:38;14.32;;;7.03;;
59338;SDS011;45117;50.960;5.500;2023-03-02T07:56:05;10.60;;;5.32;;
59338;SDS011;45117;50.960;5.500;2023-03-02T07:58:32;11.80;;;6.57;;
59338;SDS011;45117;50.960;5.500;2023-03-02T08:00:59;14.02;;;7.10;;
59338;SDS011;45117;50.960;5.500;2023-03-02T08:03:25;13.85;;;6.20;;
59338;SDS011;45117;50.960;5.500;2023-03-02T08:05:53;11.75;;;6.43;;
59338;SDS011;45117;50.960;5.500;2023-03-02T08:08:20;13.65;;;6.10;;
59338;SDS011;45117;50.960;5.500;2023-03-02T08:10:46;12.90;;;6.45;;
59338;SDS011;45117;50.960;5.500;2023-03-02T08:13:13;13.90;;;5.88;;
59338;SDS011;45117;50.960;5.500;2023-03-02T08:15:39;12.25;;;6.30;;
59338;SDS011;45117;50.960;5.500;2023-03-02T08:18:06;12.63;;;6.68;;
59338;SDS011;45117;50.960;5.500;2023-03-02T08:20:32;10.73;;;5.80;;
59338;SDS011;45117;50.960;5.500;2023-03-02T08:23:00;12.10;;;6.53;;
59338;SDS011;45117;50.960;5.500;2023-03-02T08:25:27;14.52;;;6.30;;
59338;SDS011;45117;50.960;5.500;2023-03-02T08:27:53;11.18;;;5.82;;
59338;SDS011;45117;50.960;5.500;2023-03-02T08:30:20;11.45;;;5.90;;
59338;SDS011;45117;50.960;5.500;2023-03-02T08:32:46;14.30;;;7.10;;
59338;SDS011;45117;50.960;5.500;2023-03-02T08:35:13;11.32;;;6.43;;
59338;SDS011;45117;50.960;5.500;2023-03-02T08:37:39;14.07;;;7.07;;
59338;SDS011;45117;50.960;5.500;2023-03-02T08:40:08;13.40;;;6.22;;
59338;SDS011;45117;50.960;5.500;2023-03-02T08:42:35;12.98;;;6.35;;
59338;SDS011;45117;50.960;5.500;2023-03-02T08:45:02;12.88;;;6.30;;
59338;SDS011;45117;50.960;5.500;2023-03-02T08:47:29;11.80;;;6.32;;
59338;SDS011;45117;50.960;5.500;2023-03-02T08:49:56;13.07;;;6.22;;
59338;SDS011;45117;50.960;5.500;2023-03-02T08:52:22;13.90;;;6.55;;
59338;SDS011;45117;50.960;5.500;2023-03-02T08:54:49;11.75;;;6.57;;
59338;SDS011;45117;50.960;5.500;2023-03-02T08:57:17;10.65;;;5.57;;
59338;SDS011;45117;50.960;5.500;2023-03-02T08:59:43;13.48;;;6.90;;
59338;SDS011;45117;50.960;5.500;2023-03-02T09:02:10;12.73;;;6.38;;
59338;SDS011;45117;50.960;5.500;2023-03-02T09:04:37;13.75;;;7.07;;
59338;SDS011;45117;50.960;5.500;2023-03-02T09:07:03;14.75;;;7.13;;
59338;SDS011;45117;50.960;5.500;2023-03-02T09:09:30;12.07;;;6.65;;
59338;SDS011;45117;50.960;5.500;2023-03-02T09:11:56;14.82;;;6.88;;
59338;SDS011;45117;50.960;5.500;2023-03-02T09:14:24;11.35;;;6.07;;
59338;SDS011;45117;50.960;5.500;2023-03-02T09:16:51;12.70;;;6.60;;
59338;SDS011;45117;50.960;5.500;2023-03-02T09:19:18;13.23;;;6.55;;
59338;SDS011;45117;50.960;5.500;2023-03-02T09:21:45;11.85;;;6.70;;
59338;SDS011;45117;50.960;5.500;2023-03-02T09:24:12;11.70;;;6.10;;
59338;SDS011;45117;50.960;5.500;2023-03-02T09:26:38;10.98;;;6.47;;
59338;SDS011;45117;50.960;5.500;2023-03-02T09:29:05;11.70;;;6.55;;
59338;SDS011;45117;50.960;5.500;2023-03-02T09:31:33;11.15;;;6.60;;
59338;SDS011;45117;50.960;5.500;2023-03-02T09:34:00;11.07;;;6.68;;
59338;SDS011;45117;50.960;5.500;2023-03-02T09:36:27;14.73;;;7.10;;
59338;SDS011;45117;50.960;5.500;2023-03-02T09:38:56;11.35;;;6.50;;
59338;SDS011;45117;50.960;5.500;2023-03-02T09:41:30;12.30;;;6.05;;
59338;SDS011;45117;50.960;5.500;2023-03-02T09:44:09;13.27;;;6.45;;
59338;SDS011;45117;50.960;5.500;2023-03-02T09:46:48;13.93;;;7.10;;
59338;SDS011;45117;50.960;5.500;2023-03-02T09:49:19;12.75;;;6.55;;
59338;SDS011;45117;50.960;5.500;2023-03-02T09:51:57;13.82;;;7.28;;
59338;SDS011;45117;50.960;5.500;2023-03-02T09:54:35;9.05;;;5.45;;
59338;SDS011;45117;50.960;5.500;2023-03-02T09:57:03;13.18;;;6.60;;
59338;SDS011;45117;50.960;5.500;2023-03-02T10:01:05;13.32;;;6.70;;
59338;SDS011;45117;50.960;5.500;2023-03-02T10:03:38;13.05;;;6.35;;
59338;SDS011;45117;50.960;5.500;2023-03-02T10:06:10;15.05;;;7.60;;
59338;SDS011;45117;50.960;5.500;2023-03-02T10:08:38;12.75;;;6.30;;
59338;SDS011;45117;50.960;5.500;2023-03-02T10:11:08;13.20;;;7.40;;
59338;SDS011;45117;50.960;5.500;2023-03-02T10:13:42;13.82;;;7.57;;
59338;SDS011;45117;50.960;5.500;2023-03-02T10:16:17;13.13;;;6.82;;
59338;SDS011;45117;50.960;5.500;2023-03-02T10:18:53;14.13;;;6.65;;
59338;SDS011;45117;50.960;5.500;2023-03-02T10:21:28;17.13;;;7.50;;
59338;SDS011;45117;50.960;5.500;2023-03-02T10:24:00;13.77;;;7.25;;
59338;SDS011;45117;50.960;5.500;2023-03-02T10:26:36;14.63;;;7.15;;
59338;SDS011;45117;50.960;5.500;2023-03-02T10:32:13;14.25;;;7.43;;
59338;SDS011;45117;50.960;5.500;2023-03-02T10:34:43;12.13;;;7.45;;
59338;SDS011;45117;50.960;5.500;2023-03-02T10:37:12;11.82;;;7.10;;
59338;SDS011;45117;50.960;5.500;2023-03-02T10:39:40;13.35;;;6.90;;
59338;SDS011;45117;50.960;5.500;2023-03-02T10:42:09;14.00;;;6.65;;
59338;SDS011;45117;50.960;5.500;2023-03-02T10:44:39;13.60;;;7.50;;
59338;SDS011;45117;50.960;5.500;2023-03-02T10:47:19;14.27;;;7.10;;
59338;SDS011;45117;50.960;5.500;2023-03-02T10:49:48;13.90;;;7.07;;
59338;SDS011;45117;50.960;5.500;2023-03-02T10:52:15;12.93;;;7.35;;
59338;SDS011;45117;50.960;5.500;2023-03-02T10:54:43;13.43;;;7.07;;
59338;SDS011;45117;50.960;5.500;2023-03-02T10:57:22;16.23;;;8.07;;
59338;SDS011;45117;50.960;5.500;2023-03-02T11:00:00;14.20;;;7.07;;
59338;SDS011;45117;50.960;5.500;2023-03-02T11:02:30;13.38;;;7.60;;
59338;SDS011;45117;50.960;5.500;2023-03-02T11:05:12;14.60;;;7.93;;
59338;SDS011;45117;50.960;5.500;2023-03-02T11:07:50;13.45;;;6.90;;
59338;SDS011;45117;50.960;5.500;2023-03-02T11:10:18;13.98;;;7.45;;
59338;SDS011;45117;50.960;5.500;2023-03-02T11:12:46;12.85;;;6.97;;
59338;SDS011;45117;50.960;5.500;2023-03-02T11:15:16;14.15;;;6.80;;
59338;SDS011;45117;50.960;5.500;2023-03-02T11:17:48;16.70;;;7.38;;
59338;SDS011;45117;50.960;5.500;2023-03-02T11:20:19;13.27;;;6.72;;
59338;SDS011;45117;50.960;5.500;2023-03-02T11:22:51;14.10;;;7.30;;
59338;SDS011;45117;50.960;5.500;2023-03-02T11:25:24;13.10;;;6.60;;
59338;SDS011;45117;50.960;5.500;2023-03-02T11:27:54;15.40;;;7.63;;
59338;SDS011;45117;50.960;5.500;2023-03-02T11:30:24;14.13;;;7.22;;
59338;SDS011;45117;50.960;5.500;2023-03-02T11:32:56;15.00;;;7.55;;
59338;SDS011;45117;50.960;5.500;2023-03-02T11:35:28;12.88;;;6.88;;
59338;SDS011;45117;50.960;5.500;2023-03-02T11:37:58;13.30;;;7.43;;
59338;SDS011;45117;50.960;5.500;2023-03-02T11:40:30;14.20;;;8.02;;
59338;SDS011;45117;50.960;5.500;2023-03-02T11:42:59;12.95;;;6.80;;
59338;SDS011;45117;50.960;5.500;2023-03-02T11:45:29;15.80;;;7.95;;
59338;SDS011;45117;50.960;5.500;2023-03-02T11:48:01;14.13;;;7.10;;
59338;SDS011;45117;50.960;5.500;2023-03-02T11:50:31;13.63;;;7.43;;
59338;SDS011;45117;50.960;5.500;2023-03-02T11:53:00;12.43;;;7.25;;
59338;SDS011;45117;50.960;5.500;2023-03-02T11:55:30;15.15;;;7.13;;
59338;SDS011;45117;50.960;5.500;2023-03-02T11:58:01;12.82;;;7.40;;
59338;SDS011;45117;50.960;5.500;2023-03-02T12:00:30;14.98;;;7.72;;
59338;SDS011;45117;50.960;5.500;2023-03-02T12:03:02;14.57;;;8.02;;
59338;SDS011;45117;50.960;5.500;2023-03-02T12:05:31;15.52;;;7.22;;
59338;SDS011;45117;50.960;5.500;2023-03-02T12:08:01;16.02;;;7.72;;
59338;SDS011;45117;50.960;5.500;2023-03-02T12:10:31;13.38;;;7.25;;
59338;SDS011;45117;50.960;5.500;2023-03-02T12:13:05;11.43;;;6.55;;
59338;SDS011;45117;50.960;5.500;2023-03-02T12:15:40;15.27;;;8.00;;
59338;SDS011;45117;50.960;5.500;2023-03-02T12:20:58;13.70;;;7.55;;
59338;SDS011;45117;50.960;5.500;2023-03-02T12:23:29;17.23;;;8.23;;
59338;SDS011;45117;50.960;5.500;2023-03-02T12:26:02;14.52;;;6.75;;
59338;SDS011;45117;50.960;5.500;2023-03-02T12:28:32;14.25;;;7.68;;
59338;SDS011;45117;50.960;5.500;2023-03-02T12:31:01;15.63;;;7.97;;
59338;SDS011;45117;50.960;5.500;2023-03-02T12:33:39;12.27;;;6.88;;
59338;SDS011;45117;50.960;5.500;2023-03-02T12:36:13;13.27;;;6.35;;
59338;SDS011;45117;50.960;5.500;2023-03-02T12:38:43;14.75;;;7.63;;
59338;SDS011;45117;50.960;5.500;2023-03-02T12:41:31;13.18;;;7.65;;
59338;SDS011;45117;50.960;5.500;2023-03-02T12:44:06;12.85;;;5.90;;
59338;SDS011;45117;50.960;5.500;2023-03-02T12:46:47;17.58;;;7.93;;
59338;SDS011;45117;50.960;5.500;2023-03-02T12:49:28;15.35;;;7.40;;
59338;SDS011;45117;50.960;5.500;2023-03-02T12:52:17;11.20;;;6.43;;
59338;SDS011;45117;50.960;5.500;2023-03-02T12:54:45;12.57;;;7.28;;
59338;SDS011;45117;50.960;5.500;2023-03-02T12:57:12;12.30;;;7.00;;
59338;SDS011;45117;50.960;5.500;2023-03-02T12:59:41;13.43;;;7.03;;
59338;SDS011;45117;50.960;5.500;2023-03-02T13:02:12;13.73;;;6.47;;
59338;SDS011;45117;50.960;5.500;2023-03-02T13:04:42;11.95;;;7.00;;
59338;SDS011;45117;50.960;5.500;2023-03-02T13:07:16;14.95;;;6.78;;
59338;SDS011;45117;50.960;5.500;2023-03-02T13:09:47;18.08;;;7.50;;
59338;SDS011;45117;50.960;5.500;2023-03-02T13:12:15;11.80;;;6.35;;
59338;SDS011;45117;50.960;5.500;2023-03-02T13:14:42;15.00;;;6.32;;
59338;SDS011;45117;50.960;5.500;2023-03-02T13:17:17;13.73;;;7.43;;
59338;SDS011;45117;50.960;5.500;2023-03-02T13:19:48;15.68;;;7.30;;
59338;SDS011;45117;50.960;5.500;2023-03-02T13:22:15;15.70;;;7.13;;
59338;SDS011;45117;50.960;5.500;2023-03-02T13:24:43;13.30;;;6.90;;
59338;SDS011;45117;50.960;5.500;2023-03-02T13:27:15;13.77;;;7.65;;
59338;SDS011;45117;50.960;5.500;2023-03-02T13:29:42;12.57;;;7.43;;
59338;SDS011;45117;50.960;5.500;2023-03-02T13:32:16;16.67;;;6.95;;
59338;SDS011;45117;50.960;5.500;2023-03-02T13:34:44;13.55;;;7.38;;
59338;SDS011;45117;50.960;5.500;2023-03-02T13:37:22;15.32;;;7.22;;
59338;SDS011;45117;50.960;5.500;2023-03-02T13:39:58;13.68;;;7.70;;
59338;SDS011;45117;50.960;5.500;2023-03-02T13:42:27;10.23;;;5.07;;
59338;SDS011;45117;50.960;5.500;2023-03-02T13:45:07;10.95;;;6.22;;
59338;SDS011;45117;50.960;5.500;2023-03-02T13:47:38;13.25;;;6.97;;
59338;SDS011;45117;50.960;5.500;2023-03-02T13:50:08;15.15;;;6.35;;
59338;SDS011;45117;50.960;5.500;2023-03-02T13:52:36;11.70;;;6.40;;
59338;SDS011;45117;50.960;5.500;2023-03-02T13:55:08;12.63;;;6.22;;
59338;SDS011;45117;50.960;5.500;2023-03-02T13:57:38;13.80;;;5.95;;
59338;SDS011;45117;50.960;5.500;2023-03-02T14:00:06;14.07;;;7.43;;
59338;SDS011;45117;50.960;5.500;2023-03-02T14:02:36;11.00;;;6.63;;
59338;SDS011;45117;50.960;5.500;2023-03-02T14:05:02;13.93;;;7.07;;
59338;SDS011;45117;50.960;5.500;2023-03-02T14:07:31;11.57;;;6.10;;
59338;SDS011;45117;50.960;5.500;2023-03-02T14:09:59;14.68;;;6.65;;
59338;SDS011;45117;50.960;5.500;2023-03-02T14:12:26;13.07;;;6.68;;
59338;SDS011;45117;50.960;5.500;2023-03-02T14:14:56;11.27;;;6.13;;
59338;SDS011;45117;50.960;5.500;2023-03-02T14:17:25;11.65;;;6.35;;
59338;SDS011;45117;50.960;5.500;2023-03-02T14:19:52;9.40;;;5.22;;
59338;SDS011;45117;50.960;5.500;2023-03-02T14:22:19;12.40;;;6.60;;
59338;SDS011;45117;50.960;5.500;2023-03-02T14:24:46;13.35;;;6.45;;
59338;SDS011;45117;50.960;5.500;2023-03-02T14:27:15;13.80;;;6.00;;
59338;SDS011;45117;50.960;5.500;2023-03-02T14:29:43;15.75;;;6.53;;
59338;SDS011;45117;50.960;5.500;2023-03-02T14:32:11;10.65;;;5.78;;
59338;SDS011;45117;50.960;5.500;2023-03-02T14:34:39;12.52;;;6.70;;
59338;SDS011;45117;50.960;5.500;2023-03-02T14:37:07;11.07;;;6.63;;
59338;SDS011;45117;50.960;5.500;2023-03-02T14:39:36;12.25;;;6.07;;
59338;SDS011;45117;50.960;5.500;2023-03-02T14:42:04;16.25;;;6.82;;
59338;SDS011;45117;50.960;5.500;2023-03-02T14:44:33;13.30;;;6.93;;
59338;SDS011;45117;50.960;5.500;2023-03-02T14:46:59;17.95;;;7.07;;
59338;SDS011;45117;50.960;5.500;2023-03-02T14:49:26;13.82;;;5.85;;
59338;SDS011;45117;50.960;5.500;2023-03-02T14:51:56;15.02;;;6.82;;